Terminal Aerodrome Forecast
Issued by NWS

Home | Current Version | Previous Version | Graphics & Text | Print | Product List | Glossary On
Versions: 1 2 3 4 5 6 7 8 9 10 11 12 13 14 15 16 17
000
FTUS43 KABR 172100 AAA
TAFPIR
TAF AMD
KPIR 172105Z 1721/1818 VRB06KT P6SM SCT030 SCT090
     FM180200 VRB06KT P6SM VCTS BKN040CB
     FM180600 30011KT P6SM SKC=

USA.gov is the U.S. government's official web portal to all federal, state and local government web resources and services.